createdAt,value
2022-11-26T00:02:26.690Z,19.67
2022-11-26T00:04:55.857Z,25.42
2022-11-26T00:07:28.177Z,24.45
2022-11-26T00:09:57.857Z,26.95
2022-11-26T00:12:34.851Z,28.98
2022-11-26T00:15:22.702Z,23.95
2022-11-26T00:17:51.075Z,27.05
2022-11-26T00:20:20.682Z,27.27
2022-11-26T00:22:58.350Z,20.55
2022-11-26T00:25:31.199Z,22.80
2022-11-26T00:27:59.422Z,25.70
2022-11-26T00:30:28.078Z,26.92
2022-11-26T00:32:58.616Z,25.17
2022-11-26T00:35:25.889Z,20.92
2022-11-26T00:38:05.056Z,22.30
2022-11-26T00:40:40.767Z,21.55
2022-11-26T00:43:17.692Z,20.40
2022-11-26T00:45:45.355Z,21.92
2022-11-26T00:48:20.006Z,28.63
2022-11-26T00:50:51.707Z,21.33
2022-11-26T00:53:25.888Z,22.17
2022-11-26T00:55:52.861Z,20.75
2022-11-26T00:58:38.962Z,18.40
2022-11-26T01:01:06.182Z,22.00
2022-11-26T01:03:33.378Z,18.73
2022-11-26T01:06:00.443Z,17.70
2022-11-26T01:08:36.372Z,23.48
2022-11-26T01:11:05.765Z,22.52
2022-11-26T01:13:33.155Z,20.63
2022-11-26T01:16:06.871Z,17.27
2022-11-26T01:18:35.347Z,17.52
2022-11-26T01:21:02.221Z,19.40
2022-11-26T01:23:29.143Z,20.42
2022-11-26T01:25:56.024Z,22.50
2022-11-26T01:28:22.968Z,21.25
2022-11-26T01:30:49.885Z,22.83
2022-11-26T01:33:16.813Z,16.35
2022-11-26T01:35:43.826Z,26.50
2022-11-26T01:38:15.764Z,19.60
2022-11-26T01:41:06.783Z,24.20
2022-11-26T01:43:41.161Z,18.70
2022-11-26T01:46:20.768Z,19.70
2022-11-26T01:48:49.982Z,19.50
2022-11-26T01:51:26.778Z,23.75
2022-11-26T01:54:01.719Z,22.33
2022-11-26T01:56:38.968Z,20.20
2022-11-26T01:59:12.393Z,15.68
2022-11-26T02:01:39.624Z,21.55
2022-11-26T02:04:35.556Z,23.08
2022-11-26T02:07:03.063Z,24.73
2022-11-26T02:09:31.451Z,21.30
2022-11-26T02:11:58.603Z,18.95
2022-11-26T02:14:32.622Z,25.92
2022-11-26T02:17:23.981Z,27.65
2022-11-26T02:19:59.732Z,29.02
2022-11-26T02:23:03.023Z,22.25
2022-11-26T02:26:00.871Z,21.13
2022-11-26T02:29:03.121Z,25.10
2022-11-26T02:31:36.244Z,30.77
2022-11-26T02:34:34.280Z,25.40
2022-11-26T02:37:21.815Z,28.85
2022-11-26T02:39:48.973Z,23.33
2022-11-26T02:42:30.311Z,23.05
2022-11-26T02:45:11.369Z,18.15
2022-11-26T02:47:42.904Z,18.35
2022-11-26T02:50:18.837Z,22.95
2022-11-26T02:52:49.532Z,23.65
2022-11-26T02:55:20.018Z,28.73
2022-11-26T02:57:52.078Z,33.70
2022-11-26T03:00:19.923Z,24.02
2022-11-26T03:03:26.436Z,22.00
2022-11-26T03:06:03.510Z,31.92
2022-11-26T03:08:32.820Z,30.20
2022-11-26T03:11:00.529Z,21.23
2022-11-26T03:13:28.024Z,23.77
2022-11-26T03:15:55.557Z,26.58
2022-11-26T03:18:22.420Z,22.50
2022-11-26T03:20:52.219Z,27.63
2022-11-26T03:23:19.721Z,30.25
2022-11-26T03:25:46.819Z,26.30
2022-11-26T03:28:14.407Z,28.45
2022-11-26T03:30:41.423Z,22.90
2022-11-26T03:33:08.446Z,26.05
2022-11-26T03:35:35.347Z,22.13
2022-11-26T03:38:02.230Z,27.00
2022-11-26T03:40:29.223Z,24.85
2022-11-26T03:42:56.072Z,22.65
2022-11-26T03:45:22.997Z,24.17
2022-11-26T03:47:49.910Z,19.25
2022-11-26T03:50:17.041Z,24.88
2022-11-26T03:52:44.024Z,25.38
2022-11-26T03:55:11.224Z,23.17
2022-11-26T03:57:38.785Z,26.13
2022-11-26T04:00:09.192Z,23.38
2022-11-26T04:02:36.847Z,25.35
2022-11-26T04:05:04.451Z,24.60
2022-11-26T04:07:31.409Z,24.05
2022-11-26T04:09:58.361Z,22.27
2022-11-26T04:12:25.304Z,19.52
2022-11-26T04:14:52.310Z,22.30
2022-11-26T04:17:19.157Z,24.65
2022-11-26T04:19:46.065Z,27.42
2022-11-26T04:22:13.223Z,24.92
2022-11-26T04:24:40.434Z,23.58
2022-11-26T04:27:07.593Z,25.48
2022-11-26T04:29:36.247Z,23.92
2022-11-26T04:32:04.874Z,21.98
2022-11-26T04:34:32.264Z,25.92
2022-11-26T04:36:59.149Z,22.83
2022-11-26T04:39:26.083Z,23.92
2022-11-26T04:41:53.115Z,24.95
2022-11-26T04:44:20.076Z,25.60
2022-11-26T04:46:47.132Z,25.35
2022-11-26T04:49:14.128Z,27.88
2022-11-26T04:51:41.093Z,24.42
2022-11-26T04:54:12.716Z,23.48
2022-11-26T04:56:40.480Z,27.40
2022-11-26T04:59:07.822Z,22.77
2022-11-26T05:01:34.962Z,31.85
2022-11-26T05:04:01.922Z,22.70
2022-11-26T05:06:28.973Z,34.42
2022-11-26T05:08:55.934Z,25.23
2022-11-26T05:11:23.040Z,28.63
2022-11-26T05:13:49.967Z,28.73
2022-11-26T05:16:16.972Z,30.63
2022-11-26T05:18:43.938Z,28.30
2022-11-26T05:21:10.865Z,35.05
2022-11-26T05:23:37.807Z,33.22
2022-11-26T05:26:04.804Z,30.67
2022-11-26T05:28:31.737Z,32.92
2022-11-26T05:31:01.206Z,29.27
2022-11-26T05:33:29.049Z,33.72
2022-11-26T05:35:56.412Z,31.98
2022-11-26T05:38:23.780Z,33.20
2022-11-26T05:40:50.629Z,39.08
2022-11-26T05:43:18.008Z,37.38
2022-11-26T05:45:44.958Z,35.17
2022-11-26T05:48:12.026Z,32.38
2022-11-26T05:50:38.983Z,35.55
2022-11-26T05:53:06.079Z,32.03
2022-11-26T05:55:38.713Z,29.92
2022-11-26T05:58:15.911Z,32.88
2022-11-26T06:00:42.859Z,27.10
2022-11-26T06:03:10.007Z,30.88
2022-11-26T06:05:36.957Z,36.28
2022-11-26T06:08:04.154Z,35.30
2022-11-26T06:10:31.101Z,37.10
2022-11-26T06:12:58.125Z,34.15
2022-11-26T06:15:25.056Z,43.28
2022-11-26T06:17:51.989Z,38.70
2022-11-26T06:22:47.007Z,41.25
2022-11-26T06:25:15.017Z,37.88
2022-11-26T06:27:42.395Z,40.60
2022-11-26T06:30:11.468Z,39.75
2022-11-26T06:32:38.491Z,38.28
2022-11-26T06:35:06.234Z,33.72
2022-11-26T06:37:33.414Z,33.30
2022-11-26T06:40:00.665Z,43.95
2022-11-26T06:42:28.070Z,38.33
2022-11-26T06:44:59.620Z,34.70
2022-11-26T06:47:27.542Z,44.20
2022-11-26T06:49:54.490Z,42.63
2022-11-26T06:52:21.377Z,36.65
2022-11-26T06:54:49.833Z,42.33
2022-11-26T06:57:16.746Z,46.00
2022-11-26T06:59:43.761Z,38.25
2022-11-26T07:02:11.432Z,36.22
2022-11-26T07:04:38.638Z,41.45
2022-11-26T07:07:05.643Z,42.63
2022-11-26T07:09:32.557Z,38.13
2022-11-26T07:11:59.540Z,41.38
2022-11-26T07:14:27.011Z,38.95
2022-11-26T07:16:53.952Z,44.72
2022-11-26T07:19:20.827Z,41.50
2022-11-26T07:21:47.701Z,42.03
2022-11-26T07:24:15.232Z,40.38
2022-11-26T07:26:42.268Z,39.75
2022-11-26T07:29:09.402Z,37.88
2022-11-26T07:31:38.243Z,39.50
2022-11-26T07:34:05.164Z,41.22
2022-11-26T07:36:32.215Z,36.88
2022-11-26T07:39:02.064Z,36.67
2022-11-26T07:41:29.729Z,39.22
2022-11-26T07:43:56.990Z,32.65
2022-11-26T07:46:26.623Z,34.78
2022-11-26T07:48:55.434Z,30.00
2022-11-26T07:51:32.395Z,35.95
2022-11-26T07:54:05.266Z,36.15
2022-11-26T07:56:32.526Z,31.55
2022-11-26T07:59:02.027Z,33.88
2022-11-26T08:01:29.975Z,29.52
2022-11-26T08:04:00.081Z,30.67
2022-11-26T08:06:30.341Z,34.63
2022-11-26T08:09:00.652Z,28.27
2022-11-26T08:11:31.739Z,35.10
2022-11-26T08:14:03.649Z,33.38
2022-11-26T08:16:31.346Z,31.08
2022-11-26T08:19:01.954Z,28.50
2022-11-26T08:21:29.422Z,29.17
2022-11-26T08:23:56.752Z,28.05
2022-11-26T08:26:32.964Z,36.80
2022-11-26T08:29:02.059Z,30.35
2022-11-26T08:31:29.389Z,42.03
2022-11-26T08:33:59.461Z,36.95
2022-11-26T08:36:28.341Z,25.30
2022-11-26T08:38:58.827Z,35.25
2022-11-26T08:41:28.904Z,25.33
2022-11-26T08:44:11.159Z,28.10
2022-11-26T08:46:41.559Z,24.08
2022-11-26T08:49:13.271Z,26.58
2022-11-26T08:51:41.020Z,29.02
2022-11-26T08:54:08.120Z,29.55
2022-11-26T08:56:35.348Z,31.50
2022-11-26T08:59:03.610Z,24.13
2022-11-26T09:01:33.893Z,22.58
2022-11-26T09:04:03.496Z,23.92
2022-11-26T09:06:34.036Z,27.73
2022-11-26T09:09:14.243Z,22.90
2022-11-26T09:11:47.803Z,24.33
2022-11-26T09:14:17.840Z,25.20
2022-11-26T09:16:45.684Z,25.95
2022-11-26T09:19:14.940Z,23.52
2022-11-26T09:21:42.291Z,22.75
2022-11-26T09:24:09.520Z,26.85
2022-11-26T09:26:36.664Z,23.52
2022-11-26T09:29:04.314Z,24.15
2022-11-26T09:31:32.244Z,21.60
2022-11-26T09:34:02.208Z,21.48
2022-11-26T09:36:29.742Z,19.42
2022-11-26T09:38:59.411Z,24.48
2022-11-26T09:41:38.850Z,23.15
2022-11-26T09:44:17.676Z,19.50
2022-11-26T09:47:13.827Z,27.52
2022-11-26T09:50:04.167Z,22.27
2022-11-26T09:52:42.144Z,23.75
2022-11-26T09:55:31.167Z,22.00
2022-11-26T09:58:27.009Z,20.00
2022-11-26T10:00:59.387Z,23.35
2022-11-26T10:03:35.165Z,21.83
2022-11-26T10:06:29.819Z,19.75
2022-11-26T10:09:47.958Z,17.35
2022-11-26T10:13:10.923Z,21.92
2022-11-26T10:15:50.952Z,16.30
2022-11-26T10:18:38.272Z,19.98
2022-11-26T10:21:27.299Z,16.83
2022-11-26T10:24:03.958Z,22.38
2022-11-26T10:26:36.085Z,14.98
2022-11-26T10:29:33.420Z,20.95
2022-11-26T10:32:15.164Z,17.00
2022-11-26T10:34:57.905Z,22.58
2022-11-26T10:37:28.302Z,18.05
2022-11-26T10:40:28.285Z,17.80
2022-11-26T10:43:21.732Z,18.52
2022-11-26T10:45:57.466Z,17.75
2022-11-26T10:48:45.129Z,20.80
2022-11-26T10:51:30.373Z,16.50
2022-11-26T10:54:04.591Z,18.95
2022-11-26T10:56:47.520Z,15.20
2022-11-26T10:59:38.027Z,19.65
2022-11-26T11:02:34.671Z,19.13
2022-11-26T11:05:08.169Z,21.02
2022-11-26T11:07:38.058Z,19.90
2022-11-26T11:10:11.620Z,21.75
2022-11-26T11:12:41.446Z,18.08
2022-11-26T11:15:23.859Z,20.58
2022-11-26T11:18:18.577Z,19.73
2022-11-26T11:20:58.948Z,17.67
2022-11-26T11:23:52.349Z,15.43
2022-11-26T11:26:24.859Z,15.23
2022-11-26T11:28:54.533Z,14.02
2022-11-26T11:31:26.124Z,20.55
2022-11-26T11:34:19.281Z,17.15
2022-11-26T11:37:21.145Z,18.05
2022-11-26T11:40:06.291Z,14.73
2022-11-26T11:42:33.335Z,21.23
2022-11-26T11:45:04.238Z,18.02
2022-11-26T11:47:43.577Z,11.32
2022-11-26T11:50:33.861Z,16.83
2022-11-26T11:53:09.988Z,15.88
2022-11-26T11:55:36.811Z,12.23
2022-11-26T11:58:29.612Z,14.88
2022-11-26T12:01:25.510Z,16.52
2022-11-26T12:04:19.924Z,19.10
2022-11-26T12:07:11.811Z,15.68
2022-11-26T12:09:46.752Z,15.65
2022-11-26T12:12:35.346Z,13.32
2022-11-26T12:15:18.283Z,12.70
2022-11-26T12:18:01.452Z,19.38
2022-11-26T12:20:38.924Z,17.52
2022-11-26T12:23:34.195Z,13.85
2022-11-26T12:26:26.337Z,22.52
2022-11-26T12:29:04.365Z,15.02
2022-11-26T12:31:54.814Z,17.98
2022-11-26T12:34:43.626Z,14.57
2022-11-26T12:37:32.349Z,16.77
2022-11-26T12:40:37.671Z,17.48
2022-11-26T12:44:00.424Z,14.20
2022-11-26T12:46:41.398Z,17.30
2022-11-26T12:49:23.389Z,14.18
2022-11-26T12:52:14.465Z,13.38
2022-11-26T12:55:01.414Z,15.95
2022-11-26T12:57:38.309Z,17.70
2022-11-26T13:00:14.617Z,15.45
2022-11-26T13:02:51.260Z,19.27
2022-11-26T13:05:29.322Z,14.50
2022-11-26T13:08:36.490Z,15.15
2022-11-26T13:11:32.431Z,15.55
2022-11-26T13:17:37.271Z,14.00
2022-11-26T13:20:42.022Z,9.93
2022-11-26T13:23:30.229Z,17.02
2022-11-26T13:26:15.227Z,12.07
2022-11-26T13:29:34.795Z,17.20
2022-11-26T13:32:25.218Z,13.50
2022-11-26T13:35:00.867Z,13.13
2022-11-26T13:38:14.379Z,16.25
2022-11-26T13:41:14.652Z,13.52
2022-11-26T13:44:27.913Z,14.82
2022-11-26T13:47:06.144Z,9.88
2022-11-26T13:50:11.144Z,15.32
2022-11-26T13:52:56.834Z,10.48
2022-11-26T13:55:33.653Z,12.77
2022-11-26T13:58:08.380Z,15.13
2022-11-26T14:00:36.427Z,14.30
2022-11-26T14:03:03.725Z,15.32
2022-11-26T14:06:03.746Z,13.63
2022-11-26T14:08:46.440Z,20.75
2022-11-26T14:11:45.692Z,19.80
2022-11-26T14:14:24.873Z,14.13
2022-11-26T14:17:33.895Z,14.15
2022-11-26T14:20:03.750Z,14.05
2022-11-26T14:22:37.695Z,20.45
2022-11-26T14:25:10.647Z,11.15
2022-11-26T14:27:54.488Z,16.05
2022-11-26T14:30:25.812Z,12.27
2022-11-26T14:33:27.839Z,16.17
2022-11-26T14:35:56.945Z,14.35
2022-11-26T14:38:28.402Z,16.95
2022-11-26T14:41:01.096Z,12.70
2022-11-26T14:43:29.664Z,19.27
2022-11-26T14:46:17.355Z,10.43
2022-11-26T14:48:50.323Z,18.08
2022-11-26T14:51:23.760Z,14.90
2022-11-26T14:53:52.937Z,15.07
2022-11-26T14:56:24.126Z,20.38
2022-11-26T14:58:56.854Z,12.52
2022-11-26T15:01:27.152Z,16.20
2022-11-26T15:04:03.742Z,13.30
2022-11-26T15:06:39.425Z,16.83
2022-11-26T15:09:17.581Z,14.00
2022-11-26T15:12:12.937Z,14.38
2022-11-26T15:14:58.898Z,18.17
2022-11-26T15:17:30.500Z,21.20
2022-11-26T15:20:02.776Z,19.17
2022-11-26T15:22:39.704Z,13.13
2022-11-26T15:25:17.368Z,15.13
2022-11-26T15:28:25.275Z,21.77
2022-11-26T15:31:04.884Z,22.40
2022-11-26T15:33:35.078Z,17.63
2022-11-26T15:36:09.501Z,18.45
2022-11-26T15:39:03.029Z,19.52
2022-11-26T15:41:30.891Z,15.27
2022-11-26T15:44:00.139Z,19.45
2022-11-26T15:46:35.385Z,16.88
2022-11-26T15:49:09.121Z,17.13
2022-11-26T15:51:41.061Z,15.07
2022-11-26T15:54:49.569Z,21.60
2022-11-26T15:57:42.496Z,14.90
2022-11-26T16:00:31.386Z,12.05
2022-11-26T16:02:58.521Z,13.73
2022-11-26T16:05:35.467Z,17.77
2022-11-26T16:08:32.447Z,17.30
2022-11-26T16:11:09.201Z,14.57
2022-11-26T16:13:36.824Z,11.13
2022-11-26T16:16:24.581Z,14.07
2022-11-26T16:19:01.722Z,13.20
2022-11-26T16:21:34.344Z,13.70
2022-11-26T16:24:26.717Z,16.45
2022-11-26T16:27:05.653Z,17.23
2022-11-26T16:29:37.720Z,13.80
2022-11-26T16:32:04.750Z,13.40
2022-11-26T16:34:31.728Z,12.15
2022-11-26T16:37:19.049Z,11.32
2022-11-26T16:39:47.123Z,7.53
2022-11-26T16:42:21.608Z,12.52
2022-11-26T16:44:49.922Z,14.35
2022-11-26T16:47:26.677Z,15.60
2022-11-26T16:49:53.935Z,12.02
2022-11-26T16:52:21.891Z,11.95
2022-11-26T16:54:49.515Z,11.40
2022-11-26T16:57:25.769Z,14.77
2022-11-26T17:00:03.258Z,11.85
2022-11-26T17:02:30.698Z,10.13
2022-11-26T17:04:57.725Z,11.57
2022-11-26T17:07:46.414Z,14.32
2022-11-26T17:10:26.131Z,13.50
2022-11-26T17:12:53.019Z,9.95
2022-11-26T17:15:20.192Z,13.18
2022-11-26T17:17:47.382Z,8.65
2022-11-26T17:20:15.968Z,18.70
2022-11-26T17:22:43.594Z,9.07
2022-11-26T17:25:10.505Z,7.57
2022-11-26T17:27:38.339Z,11.13
2022-11-26T17:30:07.214Z,9.45
2022-11-26T17:32:34.347Z,9.90
2022-11-26T17:35:01.236Z,10.18
2022-11-26T17:37:30.599Z,11.07
2022-11-26T17:39:58.512Z,13.95
2022-11-26T17:42:26.436Z,17.92
2022-11-26T17:44:55.588Z,17.92
2022-11-26T17:47:26.732Z,13.57
2022-11-26T17:49:54.766Z,12.05
2022-11-26T17:52:22.882Z,14.10
2022-11-26T17:54:50.110Z,19.70
2022-11-26T17:57:17.440Z,8.90
2022-11-26T17:59:45.160Z,11.15
2022-11-26T18:02:12.249Z,13.48
2022-11-26T18:04:39.426Z,17.25
2022-11-26T18:07:16.243Z,10.88
2022-11-26T18:09:44.191Z,15.27
2022-11-26T18:12:25.659Z,12.27
2022-11-26T18:14:57.627Z,12.20
2022-11-26T18:17:25.542Z,11.15
2022-11-26T18:19:52.519Z,11.95
2022-11-26T18:22:22.481Z,15.20
2022-11-26T18:24:57.306Z,14.60
2022-11-26T18:27:28.596Z,10.40
2022-11-26T18:29:55.581Z,12.65
2022-11-26T18:32:22.817Z,11.93
2022-11-26T18:34:50.792Z,12.48
2022-11-26T18:37:18.673Z,12.25
2022-11-26T18:39:45.959Z,11.43
2022-11-26T18:45:00.940Z,10.85
2022-11-26T18:47:27.948Z,12.40
2022-11-26T18:49:55.075Z,10.48
2022-11-26T18:52:22.010Z,12.05
2022-11-26T18:54:48.913Z,11.73
2022-11-26T18:57:15.815Z,15.52
2022-11-26T18:59:43.014Z,14.38
2022-11-26T19:02:11.504Z,12.32
2022-11-26T19:04:39.178Z,15.73
2022-11-26T19:07:06.204Z,17.23
2022-11-26T19:09:33.213Z,13.52
2022-11-26T19:12:00.303Z,17.42
2022-11-26T19:14:27.247Z,15.93
2022-11-26T19:16:54.254Z,14.75
2022-11-26T19:19:21.953Z,14.38
2022-11-26T19:21:50.282Z,16.70
2022-11-26T19:24:17.421Z,12.88
2022-11-26T19:26:44.323Z,11.32
2022-11-26T19:29:12.934Z,13.05
2022-11-26T19:31:40.556Z,10.75
2022-11-26T19:34:13.683Z,16.08
2022-11-26T19:36:40.962Z,16.73
2022-11-26T19:39:08.879Z,12.30
2022-11-26T19:41:35.874Z,13.43
2022-11-26T19:44:05.726Z,15.60
2022-11-26T19:46:36.485Z,17.02
2022-11-26T19:49:03.529Z,18.30
2022-11-26T19:51:30.556Z,15.20
2022-11-26T19:53:57.812Z,17.48
2022-11-26T19:56:28.826Z,20.48
2022-11-26T19:59:03.158Z,11.35
2022-11-26T20:01:33.107Z,15.63
2022-11-26T20:04:04.614Z,11.57
2022-11-26T20:06:33.508Z,14.68
2022-11-26T20:09:00.654Z,16.02
2022-11-26T20:11:28.945Z,11.98
2022-11-26T20:13:57.651Z,16.05
2022-11-26T20:16:28.738Z,17.23
2022-11-26T20:18:56.750Z,15.50
2022-11-26T20:21:30.042Z,12.82
2022-11-26T20:24:01.058Z,15.32
2022-11-26T20:26:38.606Z,12.70
2022-11-26T20:29:12.982Z,11.95
2022-11-26T20:31:53.056Z,12.80
2022-11-26T20:34:26.248Z,11.77
2022-11-26T20:36:53.454Z,16.33
2022-11-26T20:39:23.653Z,16.45
2022-11-26T20:41:51.221Z,12.90
2022-11-26T20:44:18.202Z,12.40
2022-11-26T20:46:45.163Z,14.40
2022-11-26T20:49:12.214Z,14.13
2022-11-26T20:51:39.564Z,13.43
2022-11-26T20:54:06.821Z,14.88
2022-11-26T20:56:34.163Z,10.90
2022-11-26T20:59:02.460Z,14.93
2022-11-26T21:01:31.404Z,13.90
2022-11-26T21:03:59.320Z,13.65
2022-11-26T21:06:30.322Z,15.68
2022-11-26T21:09:01.885Z,10.20
2022-11-26T21:11:29.969Z,15.90
2022-11-26T21:13:59.728Z,13.77
2022-11-26T21:16:27.811Z,11.90
2022-11-26T21:18:55.228Z,17.70
2022-11-26T21:21:24.272Z,15.68
2022-11-26T21:23:51.617Z,17.88
2022-11-26T21:26:24.752Z,16.67
2022-11-26T21:28:57.199Z,14.27
2022-11-26T21:31:26.414Z,19.35
2022-11-26T21:34:02.950Z,19.05
2022-11-26T21:36:36.875Z,23.88
2022-11-26T21:39:05.010Z,23.95
2022-11-26T21:41:33.714Z,21.85
2022-11-26T21:44:04.360Z,20.38
2022-11-26T21:46:37.876Z,24.00
2022-11-26T21:49:07.507Z,19.67
2022-11-26T21:51:34.896Z,18.85
2022-11-26T21:54:02.753Z,19.10
2022-11-26T21:56:32.030Z,17.05
2022-11-26T21:59:01.069Z,16.95
2022-11-26T22:01:35.181Z,18.77
2022-11-26T22:04:15.166Z,21.08
2022-11-26T22:06:43.959Z,26.17
2022-11-26T22:09:12.833Z,28.27
2022-11-26T22:11:43.167Z,33.78
2022-11-26T22:14:15.731Z,27.55
2022-11-26T22:16:43.256Z,32.05
2022-11-26T22:19:10.292Z,30.13
2022-11-26T22:21:40.947Z,25.42
2022-11-26T22:24:13.281Z,26.65
2022-11-26T22:26:41.181Z,19.45
2022-11-26T22:29:08.201Z,23.35
2022-11-26T22:31:38.104Z,24.08
2022-11-26T22:34:07.997Z,21.98
2022-11-26T22:36:35.059Z,23.15
2022-11-26T22:39:04.602Z,22.08
2022-11-26T22:41:32.713Z,22.90
2022-11-26T22:44:00.343Z,27.27
2022-11-26T22:46:28.059Z,25.70
2022-11-26T22:49:00.378Z,17.08
2022-11-26T22:51:30.887Z,16.48
2022-11-26T22:54:01.620Z,20.95
2022-11-26T22:56:29.402Z,21.45
2022-11-26T22:58:56.825Z,22.10
2022-11-26T23:01:33.404Z,22.23
2022-11-26T23:04:03.671Z,22.00
2022-11-26T23:06:34.104Z,21.52
2022-11-26T23:09:04.047Z,20.80
2022-11-26T23:11:42.643Z,21.52
2022-11-26T23:14:11.804Z,20.83
2022-11-26T23:16:41.998Z,21.02
2022-11-26T23:19:09.845Z,24.05
2022-11-26T23:21:40.408Z,18.48
2022-11-26T23:24:08.960Z,18.75
2022-11-26T23:26:38.651Z,19.65
2022-11-26T23:29:06.586Z,21.02
2022-11-26T23:31:40.677Z,20.95
2022-11-26T23:34:09.067Z,16.38
2022-11-26T23:36:37.165Z,20.60
2022-11-26T23:39:07.848Z,26.92
2022-11-26T23:41:34.823Z,21.83
2022-11-26T23:44:01.712Z,19.52
2022-11-26T23:46:31.668Z,19.88
2022-11-26T23:48:59.134Z,20.08
2022-11-26T23:51:30.321Z,22.23
2022-11-26T23:53:57.705Z,19.10
2022-11-26T23:56:28.482Z,17.58
2022-11-26T23:58:59.396Z,20.58
